Coolin, Idaho
Current Conditions -  °F | °C
As of 7:15 AM on Monday 24 Nov 2014 (Local Time) from KSZT Reporting Station
Clear Clear  
Wind Chill: 24°   Ceiling: Unl
Heat Index: 32°   Visibility: 10mi
Dew Point: 32°   Wind: 9mph
Humidity: 100%   Direction: 200°SSW
Pressure: 30.3"   Gusts: NA
Location:  48.48°N, 116.85°W
Report Text: KSZT 241515Z AUTO 20008KT 10SM CLR 00/00 A3030 RMK AO2
Loading
Personal Weather Stations






























Interactive Weather Map New forecast layout! Learn more

10-Day Weather Forecast

Advertisements
Track Severe Weather on mobile